Time;durP1;ratioP1;P1;durP2;ratioP2;P2;SDS_P1;SDS_P2;PMS_P1;PMS_P2;Temp;Humidity;BMP_temperature;BMP_pressure;BME280_temperature;BME280_humidity;BME280_pressure;Samples;Min_cycle;Max_cycle;Signal;HPM_P1;HPM_P2
2023/01/02 00:00:30;;;;;;;8.95;5.00;;;;;;;;;;4983609;28;20700;-73
2023/01/02 00:02:55;;;;;;;9.32;5.07;;;;;;;;;;4987686;28;20203;-73
2023/01/02 00:05:21;;;;;;;10.60;5.78;;;;;;;;;;4992091;28;20187;-73
2023/01/02 00:07:46;;;;;;;9.48;5.82;;;;;;;;;;4996957;28;20174;-73
2023/01/02 00:10:11;;;;;;;19.20;7.30;;;;;;;;;;4992507;28;20292;-73
2023/01/02 00:12:36;;;;;;;7.95;5.72;;;;;;;;;;4989971;28;20211;-73
2023/01/02 00:15:02;;;;;;;8.70;5.05;;;;;;;;;;4992280;28;20178;-73
2023/01/02 00:17:27;;;;;;;7.22;5.97;;;;;;;;;;4989507;28;20184;-73
2023/01/02 00:19:52;;;;;;;12.07;6.00;;;;;;;;;;4991799;28;20167;-73
2023/01/02 00:22:17;;;;;;;8.73;5.32;;;;;;;;;;4990920;28;20184;-73
2023/01/02 00:24:43;;;;;;;14.55;6.60;;;;;;;;;;5038358;23;20222;-79
2023/01/02 00:27:08;;;;;;;10.27;5.15;;;;;;;;;;5036581;28;20190;-79
2023/01/02 00:29:33;;;;;;;9.85;5.63;;;;;;;;;;5033851;28;20175;-78
2023/01/02 00:31:58;;;;;;;8.98;5.53;;;;;;;;;;5030317;28;20288;-77
2023/01/02 00:34:24;;;;;;;9.45;5.20;;;;;;;;;;5027150;28;20243;-77
2023/01/02 00:36:49;;;;;;;12.57;5.07;;;;;;;;;;5031016;28;20196;-80
2023/01/02 00:39:14;;;;;;;6.30;4.72;;;;;;;;;;5027384;28;20548;-79
2023/01/02 00:41:40;;;;;;;9.77;5.28;;;;;;;;;;5031164;28;20181;-79
2023/01/02 00:44:05;;;;;;;9.27;5.03;;;;;;;;;;5042551;28;20196;-80
2023/01/02 00:46:30;;;;;;;9.85;5.35;;;;;;;;;;5040635;28;20178;-79
2023/01/02 00:48:55;;;;;;;8.63;5.47;;;;;;;;;;5026910;28;20589;-78
2023/01/02 00:51:20;;;;;;;10.95;5.32;;;;;;;;;;5028427;28;20209;-78
2023/01/02 00:53:46;;;;;;;10.77;5.30;;;;;;;;;;5030606;28;20191;-78
2023/01/02 00:56:11;;;;;;;7.60;5.38;;;;;;;;;;5033165;28;20226;-78
2023/01/02 00:58:36;;;;;;;11.27;6.60;;;;;;;;;;5030462;28;20867;-78
2023/01/02 01:01:01;;;;;;;7.35;5.20;;;;;;;;;;5024270;28;20293;-78
2023/01/02 01:03:27;;;;;;;8.68;5.50;;;;;;;;;;5027829;28;20258;-79
2023/01/02 01:05:52;;;;;;;10.57;5.43;;;;;;;;;;5023382;28;20178;-79
2023/01/02 01:08:17;;;;;;;8.23;5.47;;;;;;;;;;5032506;28;20569;-79
2023/01/02 01:10:42;;;;;;;11.73;5.45;;;;;;;;;;5037257;28;20198;-78
2023/01/02 01:13:07;;;;;;;12.45;6.10;;;;;;;;;;5030546;28;20249;-78
2023/01/02 01:15:33;;;;;;;13.65;5.68;;;;;;;;;;5038535;28;20269;-78
2023/01/02 01:17:58;;;;;;;9.93;5.32;;;;;;;;;;5039622;28;20232;-79
2023/01/02 01:20:23;;;;;;;13.10;5.47;;;;;;;;;;5035741;28;20269;-79
2023/01/02 01:22:48;;;;;;;10.20;6.13;;;;;;;;;;5036009;28;20244;-79
2023/01/02 01:25:14;;;;;;;10.85;5.07;;;;;;;;;;5033569;28;20275;-78
2023/01/02 01:27:39;;;;;;;7.35;5.13;;;;;;;;;;5035973;28;20182;-78
2023/01/02 01:30:04;;;;;;;13.05;5.47;;;;;;;;;;5033802;28;20198;-78
2023/01/02 01:32:30;;;;;;;8.40;5.20;;;;;;;;;;5041369;28;20197;-78
2023/01/02 01:34:55;;;;;;;11.13;4.93;;;;;;;;;;5042030;28;20205;-78
2023/01/02 01:37:20;;;;;;;11.85;5.40;;;;;;;;;;5041177;28;20178;-80
2023/01/02 01:39:46;;;;;;;6.85;5.13;;;;;;;;;;5039542;28;20182;-77
2023/01/02 01:42:14;;;;;;;8.23;6.20;;;;;;;;;;5035771;28;20591;-77
2023/01/02 01:44:49;;;;;;;11.60;4.97;;;;;;;;;;5039229;28;20205;-77
2023/01/02 01:47:33;;;;;;;10.70;6.70;;;;;;;;;;5040703;28;20241;-80
2023/01/02 01:50:02;;;;;;;11.05;5.28;;;;;;;;;;5021877;28;20175;-78
2023/01/02 01:52:28;;;;;;;7.68;4.70;;;;;;;;;;5031412;28;20237;-79
2023/01/02 01:54:55;;;;;;;10.15;4.97;;;;;;;;;;5037893;28;20193;-79
2023/01/02 01:57:25;;;;;;;12.45;5.88;;;;;;;;;;5038666;28;20183;-78
2023/01/02 01:59:51;;;;;;;7.97;5.47;;;;;;;;;;5040723;28;20166;-78
2023/01/02 02:02:16;;;;;;;7.45;5.05;;;;;;;;;;5041921;28;20271;-78
2023/01/02 02:04:42;;;;;;;9.65;4.95;;;;;;;;;;5035290;28;20226;-78
2023/01/02 02:07:08;;;;;;;10.73;7.22;;;;;;;;;;5035201;28;20198;-78
2023/01/02 02:09:39;;;;;;;9.43;5.78;;;;;;;;;;5035895;28;20604;-78
2023/01/02 02:12:05;;;;;;;11.48;5.53;;;;;;;;;;5028719;28;20202;-78
2023/01/02 02:14:30;;;;;;;8.60;5.45;;;;;;;;;;5038439;28;20248;-78
2023/01/02 02:17:02;;;;;;;7.25;4.97;;;;;;;;;;5049230;28;20182;-79
2023/01/02 02:19:27;;;;;;;11.05;5.63;;;;;;;;;;5035482;28;20179;-79
2023/01/02 02:22:17;;;;;;;6.95;5.28;;;;;;;;;;5045650;28;20591;-79
2023/01/02 02:25:01;;;;;;;8.82;4.95;;;;;;;;;;5037962;28;20221;-77
2023/01/02 02:27:26;;;;;;;8.88;4.68;;;;;;;;;;5038617;28;20178;-79
2023/01/02 02:30:07;;;;;;;10.23;5.03;;;;;;;;;;5031512;28;20185;-77
2023/01/02 02:32:47;;;;;;;11.25;5.65;;;;;;;;;;5022540;28;20198;-80
2023/01/02 02:35:20;;;;;;;9.38;5.43;;;;;;;;;;5026428;28;20186;-77
2023/01/02 02:37:55;;;;;;;9.88;5.00;;;;;;;;;;5033011;28;20196;-77
2023/01/02 02:40:28;;;;;;;7.60;4.72;;;;;;;;;;5044410;28;20219;-77
2023/01/02 02:43:12;;;;;;;6.68;4.97;;;;;;;;;;5026534;28;20174;-78
2023/01/02 02:45:40;;;;;;;12.60;4.88;;;;;;;;;;5031317;28;20272;-77
2023/01/02 02:48:27;;;;;;;20.00;6.55;;;;;;;;;;5028485;28;20179;-77
2023/01/02 02:51:06;;;;;;;11.73;4.45;;;;;;;;;;5030868;28;20181;-77
2023/01/02 02:53:35;;;;;;;8.68;5.90;;;;;;;;;;5027159;28;20635;-77
2023/01/02 02:56:03;;;;;;;11.77;5.95;;;;;;;;;;5043312;28;20174;-77
2023/01/02 02:58:28;;;;;;;10.85;5.32;;;;;;;;;;5038652;28;20261;-79
2023/01/02 03:01:04;;;;;;;8.40;4.80;;;;;;;;;;5044327;28;20216;-78
2023/01/02 03:03:29;;;;;;;18.35;5.75;;;;;;;;;;5034525;28;20211;-78
2023/01/02 03:06:13;;;;;;;9.50;4.00;;;;;;;;;;5034384;28;20174;-78
2023/01/02 03:08:45;;;;;;;10.18;4.40;;;;;;;;;;5033022;28;20758;-79
2023/01/02 03:11:11;;;;;;;8.18;4.25;;;;;;;;;;5031667;28;20306;-78
2023/01/02 03:13:43;;;;;;;6.40;3.83;;;;;;;;;;5039864;28;20218;-78
2023/01/02 03:16:27;;;;;;;5.47;4.15;;;;;;;;;;5033811;28;20249;-78
2023/01/02 03:19:06;;;;;;;6.07;4.10;;;;;;;;;;5027933;28;20220;-78
2023/01/02 03:21:33;;;;;;;7.78;4.20;;;;;;;;;;5032960;28;20186;-78
2023/01/02 03:24:01;;;;;;;10.00;4.97;;;;;;;;;;5030714;28;20220;-79
2023/01/02 03:26:29;;;;;;;9.45;5.00;;;;;;;;;;5028751;28;20225;-78
2023/01/02 03:28:56;;;;;;;7.63;4.70;;;;;;;;;;5028673;28;20182;-78
2023/01/02 03:31:24;;;;;;;9.23;4.53;;;;;;;;;;5029893;28;20213;-78
2023/01/02 03:34:00;;;;;;;7.18;4.25;;;;;;;;;;5033762;28;20679;-78
2023/01/02 03:36:26;;;;;;;8.35;4.65;;;;;;;;;;5032866;28;20256;-79
2023/01/02 03:39:11;;;;;;;7.82;4.38;;;;;;;;;;5021425;28;20175;-78
2023/01/02 03:41:40;;;;;;;5.78;3.50;;;;;;;;;;5030194;28;20221;-79
2023/01/02 03:44:06;;;;;;;11.27;4.10;;;;;;;;;;5028413;28;20199;-78
2023/01/02 03:46:42;;;;;;;8.65;4.10;;;;;;;;;;5028903;28;20188;-79
2023/01/02 03:49:12;;;;;;;9.63;3.88;;;;;;;;;;5028272;28;20567;-79
2023/01/02 03:51:37;;;;;;;8.10;4.05;;;;;;;;;;5026711;28;20305;-79
2023/01/02 03:54:03;;;;;;;9.45;3.60;;;;;;;;;;5019364;28;20277;-78
2023/01/02 03:56:48;;;;;;;9.05;4.35;;;;;;;;;;5023156;28;20232;-79
2023/01/02 03:59:16;;;;;;;7.72;3.45;;;;;;;;;;5029342;28;20206;-78
2023/01/02 04:01:41;;;;;;;9.95;3.95;;;;;;;;;;5026824;28;20657;-78
2023/01/02 04:04:22;;;;;;;7.38;3.95;;;;;;;;;;5028312;28;20202;-78
2023/01/02 04:06:50;;;;;;;8.50;3.58;;;;;;;;;;5017244;28;20645;-79
2023/01/02 04:09:20;;;;;;;7.97;3.60;;;;;;;;;;5028730;28;20189;-79
2023/01/02 04:11:49;;;;;;;5.43;3.60;;;;;;;;;;5022559;28;20636;-77
2023/01/02 04:14:21;;;;;;;6.63;3.63;;;;;;;;;;5030429;28;20204;-79
2023/01/02 04:16:47;;;;;;;8.07;4.55;;;;;;;;;;5027792;28;20175;-79
2023/01/02 04:19:18;;;;;;;7.07;3.55;;;;;;;;;;5027486;28;20265;-79
2023/01/02 04:21:45;;;;;;;8.40;3.65;;;;;;;;;;5031838;28;20270;-77
2023/01/02 04:24:16;;;;;;;10.52;4.65;;;;;;;;;;5029720;28;20260;-77
2023/01/02 04:26:44;;;;;;;8.48;3.92;;;;;;;;;;5028543;28;20182;-78
2023/01/02 04:29:09;;;;;;;10.45;4.45;;;;;;;;;;5024081;28;20209;-77
2023/01/02 04:31:42;;;;;;;7.35;4.30;;;;;;;;;;5027940;28;20665;-77
2023/01/02 04:34:10;;;;;;;9.20;4.05;;;;;;;;;;5028377;28;20205;-77
2023/01/02 04:36:38;;;;;;;12.43;5.30;;;;;;;;;;5024323;28;20204;-77
2023/01/02 04:39:04;;;;;;;10.07;4.10;;;;;;;;;;5025455;28;20174;-79
2023/01/02 04:41:30;;;;;;;18.38;5.50;;;;;;;;;;5027595;28;20224;-78
2023/01/02 04:43:55;;;;;;;6.85;4.20;;;;;;;;;;5018504;28;20202;-78
2023/01/02 04:46:21;;;;;;;7.63;4.13;;;;;;;;;;5030007;28;20662;-77
2023/01/02 04:48:46;;;;;;;9.63;5.28;;;;;;;;;;5026363;28;20179;-77
2023/01/02 04:51:11;;;;;;;7.72;5.03;;;;;;;;;;5022563;28;20263;-78
2023/01/02 04:53:37;;;;;;;6.28;4.82;;;;;;;;;;5029352;28;20206;-78
2023/01/02 04:56:02;;;;;;;6.78;4.82;;;;;;;;;;5027342;28;20174;-78
2023/01/02 04:58:27;;;;;;;8.55;5.32;;;;;;;;;;5025878;28;20252;-78
2023/01/02 05:00:52;;;;;;;7.50;4.63;;;;;;;;;;5023602;28;20174;-78
2023/01/02 05:03:18;;;;;;;7.63;5.13;;;;;;;;;;5030770;28;20279;-78
2023/01/02 05:05:43;;;;;;;9.98;5.60;;;;;;;;;;5021837;28;20177;-78
2023/01/02 05:08:08;;;;;;;9.20;4.85;;;;;;;;;;5017809;28;20223;-78
2023/01/02 05:10:33;;;;;;;8.05;5.20;;;;;;;;;;5025476;28;20186;-78
2023/01/02 05:12:58;;;;;;;9.52;5.65;;;;;;;;;;5019270;28;20753;-78
2023/01/02 05:15:24;;;;;;;8.80;5.28;;;;;;;;;;5026497;28;20174;-78
2023/01/02 05:17:49;;;;;;;8.48;5.60;;;;;;;;;;5027847;28;20584;-78
2023/01/02 05:20:14;;;;;;;8.32;5.43;;;;;;;;;;5029697;28;20178;-78
2023/01/02 05:25:24;;;;;;;9.25;5.20;;;;;;;;;;5027170;28;20205;-79
2023/01/02 05:27:56;;;;;;;8.45;4.78;;;;;;;;;;5029819;28;20174;-80
2023/01/02 05:30:21;;;;;;;7.07;5.93;;;;;;;;;;5029039;28;20672;-80
2023/01/02 05:32:46;;;;;;;5.28;4.07;;;;;;;;;;5028119;28;20265;-81
2023/01/02 05:35:12;;;;;;;2.20;1.83;;;;;;;;;;5041774;28;20224;-79
2023/01/02 05:37:37;;;;;;;1.70;1.50;;;;;;;;;;5031265;28;20679;-80
2023/01/02 05:40:03;;;;;;;2.03;1.83;;;;;;;;;;5032092;28;20188;-80
2023/01/02 05:42:28;;;;;;;1.93;1.33;;;;;;;;;;5030947;28;20174;-80
2023/01/02 05:44:53;;;;;;;2.57;1.40;;;;;;;;;;5031687;28;20718;-80
2023/01/02 05:47:18;;;;;;;1.40;1.23;;;;;;;;;;5038393;28;20188;-80
2023/01/02 05:49:43;;;;;;;1.20;1.00;;;;;;;;;;5046178;28;20210;-79
2023/01/02 05:52:09;;;;;;;1.10;1.00;;;;;;;;;;5040396;28;20259;-80
2023/01/02 05:54:34;;;;;;;1.27;0.97;;;;;;;;;;5031905;28;20256;-81
2023/01/02 05:56:59;;;;;;;1.20;1.03;;;;;;;;;;5033177;28;20175;-80
2023/01/02 05:59:24;;;;;;;1.70;1.47;;;;;;;;;;5032973;28;20175;-80
2023/01/02 06:01:49;;;;;;;1.10;1.00;;;;;;;;;;5042829;28;20727;-80
2023/01/02 06:04:15;;;;;;;1.53;1.10;;;;;;;;;;5022387;28;20205;-80
2023/01/02 06:06:40;;;;;;;1.60;1.30;;;;;;;;;;5031030;28;20178;-80
2023/01/02 06:09:06;;;;;;;1.70;1.60;;;;;;;;;;5028855;28;20193;-81
2023/01/02 06:11:32;;;;;;;1.30;1.20;;;;;;;;;;5031772;28;20202;-80
2023/01/02 06:13:57;;;;;;;1.33;1.23;;;;;;;;;;5027239;28;20190;-80
2023/01/02 06:16:23;;;;;;;2.20;1.60;;;;;;;;;;5038828;28;20258;-80
2023/01/02 06:18:49;;;;;;;2.53;1.90;;;;;;;;;;5039281;28;20170;-79
2023/01/02 06:21:15;;;;;;;2.73;1.90;;;;;;;;;;5030097;28;20251;-80
2023/01/02 06:23:40;;;;;;;2.23;2.00;;;;;;;;;;5030108;28;20301;-82
2023/01/02 06:26:13;;;;;;;3.60;2.70;;;;;;;;;;5022773;28;20290;-81
2023/01/02 06:28:39;;;;;;;4.67;2.73;;;;;;;;;;5034147;28;20208;-81
2023/01/02 06:31:08;;;;;;;3.60;2.77;;;;;;;;;;5032856;28;20237;-81
2023/01/02 06:33:33;;;;;;;4.70;3.17;;;;;;;;;;5044767;28;20289;-81
2023/01/02 06:35:59;;;;;;;3.53;2.93;;;;;;;;;;5037486;28;20661;-80
2023/01/02 06:38:25;;;;;;;4.53;3.53;;;;;;;;;;5033379;28;20644;-81
2023/01/02 06:40:53;;;;;;;4.53;3.50;;;;;;;;;;5033719;28;20261;-81
2023/01/02 06:43:19;;;;;;;7.20;4.07;;;;;;;;;;5034168;28;20205;-80
2023/01/02 06:45:44;;;;;;;4.80;3.83;;;;;;;;;;5042365;28;20181;-80
2023/01/02 06:48:09;;;;;;;4.97;4.00;;;;;;;;;;5030591;28;20179;-80
2023/01/02 06:50:35;;;;;;;5.73;4.20;;;;;;;;;;5031258;28;20193;-82
2023/01/02 06:53:00;;;;;;;4.97;2.87;;;;;;;;;;5033005;28;20601;-81
2023/01/02 06:55:25;;;;;;;4.10;2.10;;;;;;;;;;5027629;28;20542;-81
2023/01/02 06:57:50;;;;;;;2.67;2.00;;;;;;;;;;5037026;28;20185;-80
2023/01/02 07:00:17;;;;;;;2.50;1.80;;;;;;;;;;5045740;28;20220;-80
2023/01/02 07:02:42;;;;;;;2.83;1.80;;;;;;;;;;5037885;28;20177;-80
2023/01/02 07:05:07;;;;;;;4.33;2.07;;;;;;;;;;5043291;28;20204;-80
2023/01/02 07:07:32;;;;;;;4.70;2.53;;;;;;;;;;5034120;28;20269;-80
2023/01/02 07:09:57;;;;;;;4.10;2.00;;;;;;;;;;5031870;28;20616;-81
2023/01/02 07:12:23;;;;;;;3.50;2.00;;;;;;;;;;5035734;28;20202;-80
2023/01/02 07:14:48;;;;;;;3.23;1.83;;;;;;;;;;5036665;28;20213;-80
2023/01/02 07:17:13;;;;;;;7.63;2.40;;;;;;;;;;5041811;28;20210;-80
2023/01/02 07:19:38;;;;;;;4.60;2.60;;;;;;;;;;5030529;28;20527;-80
2023/01/02 07:22:03;;;;;;;5.67;1.90;;;;;;;;;;5023185;28;21047;-80
2023/01/02 07:24:29;;;;;;;4.43;2.10;;;;;;;;;;5020546;28;20268;-81
2023/01/02 07:26:54;;;;;;;5.90;1.80;;;;;;;;;;5040876;28;20199;-80
2023/01/02 07:29:19;;;;;;;4.57;2.17;;;;;;;;;;5035679;28;20182;-82
2023/01/02 07:31:44;;;;;;;9.77;3.17;;;;;;;;;;5022892;28;20198;-79
2023/01/02 07:34:10;;;;;;;4.87;2.43;;;;;;;;;;5029643;28;20304;-81
2023/01/02 07:36:35;;;;;;;6.73;2.10;;;;;;;;;;5027702;28;20204;-81
2023/01/02 07:39:00;;;;;;;6.47;2.60;;;;;;;;;;5022696;28;20637;-81
2023/01/02 07:41:25;;;;;;;7.07;2.60;;;;;;;;;;5025471;28;20230;-81
2023/01/02 07:43:53;;;;;;;6.57;3.43;;;;;;;;;;5040803;28;20280;-80
2023/01/02 07:46:18;;;;;;;5.63;2.87;;;;;;;;;;5033188;28;20186;-80
2023/01/02 07:48:44;;;;;;;5.10;3.50;;;;;;;;;;5031693;28;20863;-80
2023/01/02 07:51:10;;;;;;;6.47;2.90;;;;;;;;;;5026823;28;20236;-80
2023/01/02 07:53:35;;;;;;;4.23;2.90;;;;;;;;;;5029301;28;20252;-81
2023/01/02 07:56:01;;;;;;;6.30;3.37;;;;;;;;;;5025263;28;20174;-81
2023/01/02 07:58:26;;;;;;;5.90;3.73;;;;;;;;;;5030808;28;20683;-80
2023/01/02 08:00:53;;;;;;;5.27;2.73;;;;;;;;;;5041836;28;20522;-80
2023/01/02 08:03:18;;;;;;;7.27;2.47;;;;;;;;;;5038459;28;20206;-80
2023/01/02 08:05:43;;;;;;;6.33;2.50;;;;;;;;;;5032111;28;20169;-80
2023/01/02 08:08:08;;;;;;;3.20;2.07;;;;;;;;;;5030635;28;20269;-80
2023/01/02 08:10:35;;;;;;;8.27;2.57;;;;;;;;;;5023243;28;20667;-81
2023/01/02 08:13:00;;;;;;;4.47;2.50;;;;;;;;;;5028237;28;20207;-80
2023/01/02 08:15:25;;;;;;;4.70;2.60;;;;;;;;;;5030244;28;20270;-80
2023/01/02 08:17:50;;;;;;;6.37;3.23;;;;;;;;;;5042296;28;20522;-80
2023/01/02 08:20:16;;;;;;;4.53;3.13;;;;;;;;;;5031714;28;20236;-80
2023/01/02 08:22:41;;;;;;;14.07;5.10;;;;;;;;;;5028007;28;20190;-80
2023/01/02 08:25:07;;;;;;;7.37;4.67;;;;;;;;;;5028937;28;20220;-79
2023/01/02 08:27:32;;;;;;;6.67;4.07;;;;;;;;;;5018688;28;20183;-80
2023/01/02 08:29:57;;;;;;;7.93;4.77;;;;;;;;;;5031285;28;20178;-80
2023/01/02 08:32:23;;;;;;;9.50;5.03;;;;;;;;;;5029113;28;20194;-80
2023/01/02 08:34:48;;;;;;;7.90;5.30;;;;;;;;;;5036958;28;20194;-80
2023/01/02 08:37:13;;;;;;;10.93;6.13;;;;;;;;;;5039959;28;20192;-80
2023/01/02 08:39:38;;;;;;;9.13;6.50;;;;;;;;;;5028301;28;20210;-80
2023/01/02 08:42:04;;;;;;;8.43;4.67;;;;;;;;;;5028650;28;20178;-80
2023/01/02 08:44:29;;;;;;;8.60;4.67;;;;;;;;;;5028962;28;20202;-80
2023/01/02 08:46:54;;;;;;;9.10;5.43;;;;;;;;;;5028235;28;20178;-80
2023/01/02 08:49:20;;;;;;;5.53;3.47;;;;;;;;;;5021454;28;20193;-79
2023/01/02 08:51:45;;;;;;;6.47;3.27;;;;;;;;;;5021576;28;20607;-80
2023/01/02 08:54:10;;;;;;;9.10;4.67;;;;;;;;;;5018275;28;20194;-80
2023/01/02 08:56:36;;;;;;;4.60;2.63;;;;;;;;;;5021980;28;20182;-80
2023/01/02 08:59:09;;;;;;;3.33;2.07;;;;;;;;;;5040493;28;20232;-80
2023/01/02 09:01:34;;;;;;;4.43;2.40;;;;;;;;;;5022380;28;20278;-80
2023/01/02 09:04:00;;;;;;;3.93;2.00;;;;;;;;;;5030831;28;20279;-80
2023/01/02 09:06:26;;;;;;;4.73;2.17;;;;;;;;;;5023950;28;20186;-81
2023/01/02 09:08:52;;;;;;;3.30;1.87;;;;;;;;;;5029551;28;20177;-80
2023/01/02 09:11:19;;;;;;;2.87;2.00;;;;;;;;;;5030062;28;20198;-80
2023/01/02 09:13:44;;;;;;;4.50;2.30;;;;;;;;;;5029458;28;20694;-81
2023/01/02 09:16:09;;;;;;;8.27;3.10;;;;;;;;;;5028519;28;20170;-81
2023/01/02 09:18:35;;;;;;;4.03;2.23;;;;;;;;;;5028642;28;20234;-80
2023/01/02 09:21:00;;;;;;;5.70;3.00;;;;;;;;;;5026610;28;20777;-81
2023/01/02 09:23:25;;;;;;;3.30;1.97;;;;;;;;;;5025198;28;20259;-81
2023/01/02 09:25:51;;;;;;;5.00;2.27;;;;;;;;;;5024751;28;20636;-81
2023/01/02 09:28:16;;;;;;;3.10;1.80;;;;;;;;;;5027362;28;20248;-81
2023/01/02 09:30:41;;;;;;;3.40;2.00;;;;;;;;;;5029242;28;20174;-81
2023/01/02 09:33:07;;;;;;;3.63;1.70;;;;;;;;;;5025724;28;20206;-80
2023/01/02 09:35:33;;;;;;;5.97;1.73;;;;;;;;;;5028189;28;20717;-81
2023/01/02 09:37:58;;;;;;;4.23;1.67;;;;;;;;;;5029908;28;20265;-81
2023/01/02 09:40:23;;;;;;;4.40;1.57;;;;;;;;;;5031713;28;20178;-81
2023/01/02 09:42:49;;;;;;;3.13;1.67;;;;;;;;;;5031834;28;20166;-82
2023/01/02 09:45:15;;;;;;;7.00;1.57;;;;;;;;;;5033512;28;20241;-81
2023/01/02 09:47:41;;;;;;;4.17;1.73;;;;;;;;;;5034099;28;20180;-81
2023/01/02 09:50:12;;;;;;;3.77;1.50;;;;;;;;;;5029290;28;20179;-80
2023/01/02 09:52:40;;;;;;;5.37;2.17;;;;;;;;;;5032105;28;20210;-80
2023/01/02 09:55:15;;;;;;;2.73;0.90;;;;;;;;;;5027649;28;20190;-81
2023/01/02 09:57:47;;;;;;;5.53;1.53;;;;;;;;;;5035265;28;20261;-81
2023/01/02 10:00:17;;;;;;;3.40;1.03;;;;;;;;;;5031833;28;20558;-81
2023/01/02 10:02:43;;;;;;;3.17;1.20;;;;;;;;;;5026411;28;20649;-81
2023/01/02 10:05:31;;;;;;;3.87;0.80;;;;;;;;;;5030841;28;20194;-80
2023/01/02 10:07:56;;;;;;;1.20;0.87;;;;;;;;;;5018613;28;20186;-71
2023/01/02 10:10:42;;;;;;;4.67;1.00;;;;;;;;;;5037865;28;20229;-78
2023/01/02 10:13:16;;;;;;;3.93;1.47;;;;;;;;;;5032130;28;20637;-79
2023/01/02 10:15:43;;;;;;;3.47;0.90;;;;;;;;;;5026686;28;20182;-75
2023/01/02 10:18:14;;;;;;;2.77;1.00;;;;;;;;;;5030764;28;20178;-79
2023/01/02 10:20:41;;;;;;;4.17;1.20;;;;;;;;;;5030763;28;20655;-79
2023/01/02 10:23:13;;;;;;;2.00;0.90;;;;;;;;;;5026292;28;20207;-78
2023/01/02 10:25:41;;;;;;;4.57;0.90;;;;;;;;;;5032623;28;20672;-79
2023/01/02 10:28:06;;;;;;;14.27;1.50;;;;;;;;;;5033533;28;20189;-77
2023/01/02 10:30:34;;;;;;;10.70;2.93;;;;;;;;;;5029560;28;20178;-77
2023/01/02 10:33:04;;;;;;;7.40;1.20;;;;;;;;;;5032851;28;20263;-77
2023/01/02 10:35:36;;;;;;;4.80;1.10;;;;;;;;;;5043475;28;20181;-78
2023/01/02 10:38:02;;;;;;;3.27;1.10;;;;;;;;;;5035633;28;20197;-77
2023/01/02 10:40:27;;;;;;;2.10;1.50;;;;;;;;;;5028402;28;20211;-77
2023/01/02 10:42:55;;;;;;;3.70;1.63;;;;;;;;;;5032702;28;20239;-78
2023/01/02 10:45:21;;;;;;;2.63;1.00;;;;;;;;;;5040904;28;20268;-78
2023/01/02 10:47:46;;;;;;;5.63;1.10;;;;;;;;;;5042937;28;20281;-76
2023/01/02 10:50:19;;;;;;;2.97;1.10;;;;;;;;;;5040397;28;20197;-76
2023/01/02 10:52:49;;;;;;;4.23;1.13;;;;;;;;;;5032280;28;20198;-76
2023/01/02 10:55:35;;;;;;;6.20;1.20;;;;;;;;;;5032172;28;20297;-76
2023/01/02 10:58:01;;;;;;;2.10;0.90;;;;;;;;;;5032539;28;20333;-79
2023/01/02 11:00:28;;;;;;;5.80;1.20;;;;;;;;;;5036436;28;20613;-78
2023/01/02 11:02:56;;;;;;;7.53;1.57;;;;;;;;;;5027314;28;20955;-77
2023/01/02 11:05:25;;;;;;;7.77;1.40;;;;;;;;;;5031217;28;20252;-78
2023/01/02 11:07:51;;;;;;;9.03;1.23;;;;;;;;;;5031139;28;20194;-79
2023/01/02 11:10:27;;;;;;;2.10;0.90;;;;;;;;;;5026554;28;20428;-78
2023/01/02 11:12:52;;;;;;;6.07;2.30;;;;;;;;;;5024729;28;20245;-79
2023/01/02 11:15:29;;;;;;;6.37;1.10;;;;;;;;;;5025319;28;20671;-79
2023/01/02 11:17:55;;;;;;;1.87;1.10;;;;;;;;;;5032301;28;20174;-79
2023/01/02 11:20:26;;;;;;;4.37;0.90;;;;;;;;;;5026125;28;20178;-78
2023/01/02 11:22:53;;;;;;;2.47;1.07;;;;;;;;;;5026592;28;20185;-79
2023/01/02 11:25:26;;;;;;;1.47;0.90;;;;;;;;;;5029952;28;20208;-80
2023/01/02 11:27:55;;;;;;;6.87;0.97;;;;;;;;;;5027238;28;20170;-78
2023/01/02 11:30:31;;;;;;;5.67;1.20;;;;;;;;;;5023693;28;20270;-80
2023/01/02 11:33:00;;;;;;;1.90;1.07;;;;;;;;;;5024600;28;20218;-77
2023/01/02 11:35:35;;;;;;;2.87;0.80;;;;;;;;;;5029679;28;20175;-80
2023/01/02 11:38:00;;;;;;;4.63;1.13;;;;;;;;;;5016884;28;20186;-77
2023/01/02 11:40:27;;;;;;;8.23;1.60;;;;;;;;;;5017342;28;20189;-78
2023/01/02 11:45:38;;;;;;;6.43;1.00;;;;;;;;;;5018172;28;20197;-79
2023/01/02 11:48:05;;;;;;;1.37;0.90;;;;;;;;;;5017618;28;20178;-75
2023/01/02 11:50:33;;;;;;;9.37;1.93;;;;;;;;;;5017550;28;20195;-80
2023/01/02 11:53:01;;;;;;;5.63;1.60;;;;;;;;;;5019363;28;20213;-79
2023/01/02 11:55:29;;;;;;;5.57;1.90;;;;;;;;;;5017808;28;20179;-76
2023/01/02 11:57:59;;;;;;;3.73;1.53;;;;;;;;;;5019824;28;20534;-79
2023/01/02 12:00:28;;;;;;;9.10;1.57;;;;;;;;;;5026321;28;20179;-79
2023/01/02 12:02:58;;;;;;;4.43;1.50;;;;;;;;;;5016866;28;20201;-80
2023/01/02 12:05:42;;;;;;;3.67;1.70;;;;;;;;;;5013718;28;20175;-77
2023/01/02 12:08:16;;;;;;;5.23;1.90;;;;;;;;;;5017943;28;20261;-78
2023/01/02 12:10:57;;;;;;;7.13;2.17;;;;;;;;;;5027299;28;20185;-77
2023/01/02 12:13:41;;;;;;;9.73;3.53;;;;;;;;;;5031813;28;20280;-79
2023/01/02 12:16:25;;;;;;;4.93;1.70;;;;;;;;;;5026061;28;20217;-78
2023/01/02 12:19:16;;;;;;;6.17;2.20;;;;;;;;;;5027436;28;20190;-78
2023/01/02 12:21:41;;;;;;;7.23;1.97;;;;;;;;;;5022880;28;20183;-78
2023/01/02 12:24:20;;;;;;;6.53;1.70;;;;;;;;;;5022717;22;20671;-74
2023/01/02 12:26:52;;;;;;;6.97;3.00;;;;;;;;;;4952469;28;20185;-73
2023/01/02 12:29:32;;;;;;;5.00;2.10;;;;;;;;;;4951631;28;20178;-73
2023/01/02 12:32:10;;;;;;;6.30;2.20;;;;;;;;;;4955140;28;20207;-73
2023/01/02 12:34:35;;;;;;;3.70;1.80;;;;;;;;;;4944652;28;20576;-73
2023/01/02 12:37:11;;;;;;;7.57;2.73;;;;;;;;;;4944676;29;20177;-73
2023/01/02 12:39:36;;;;;;;5.97;2.30;;;;;;;;;;4935117;29;20192;-73
2023/01/02 12:42:01;;;;;;;9.10;3.30;;;;;;;;;;4943936;28;20173;-73
2023/01/02 12:44:26;;;;;;;8.20;4.50;;;;;;;;;;4919813;28;20296;-73
2023/01/02 12:46:59;;;;;;;8.10;4.20;;;;;;;;;;4932050;29;20186;-73
2023/01/02 12:49:27;;;;;;;9.03;4.43;;;;;;;;;;4933089;29;20185;-73
2023/01/02 12:52:01;;;;;;;7.57;3.37;;;;;;;;;;4932157;28;20208;-72
2023/01/02 12:54:41;;;;;;;7.17;4.60;;;;;;;;;;4924860;29;20675;-73
2023/01/02 12:57:12;;;;;;;9.63;4.03;;;;;;;;;;4932702;29;20172;-73
2023/01/02 13:00:04;;;;;;;10.83;4.80;;;;;;;;;;4933306;29;20272;-73
2023/01/02 13:02:47;;;;;;;11.07;5.13;;;;;;;;;;4930545;29;20189;-73
2023/01/02 13:05:15;;;;;;;11.73;5.77;;;;;;;;;;4918572;29;20672;-73
2023/01/02 13:07:51;;;;;;;10.97;5.37;;;;;;;;;;4933113;29;20909;-73
2023/01/02 13:10:18;;;;;;;8.50;5.20;;;;;;;;;;4920918;29;20193;-73
2023/01/02 13:12:45;;;;;;;10.10;5.10;;;;;;;;;;4924238;29;20200;-73
2023/01/02 13:15:21;;;;;;;12.57;5.80;;;;;;;;;;4917692;29;20197;-73
2023/01/02 13:17:49;;;;;;;9.47;5.97;;;;;;;;;;4937452;28;20282;-72
2023/01/02 13:20:26;;;;;;;8.93;5.47;;;;;;;;;;4924527;29;20269;-72
2023/01/02 13:23:23;;;;;;;12.33;5.80;;;;;;;;;;4929276;29;20658;-73
2023/01/02 13:25:53;;;;;;;11.27;6.27;;;;;;;;;;4906751;29;20317;-72
2023/01/02 13:28:19;;;;;;;9.37;6.13;;;;;;;;;;4929204;29;20173;-73
2023/01/02 13:30:51;;;;;;;11.87;6.50;;;;;;;;;;4939967;29;20189;-72
2023/01/02 13:33:32;;;;;;;11.73;7.17;;;;;;;;;;4940503;29;20193;-72
2023/01/02 13:36:02;;;;;;;9.33;6.70;;;;;;;;;;4939567;29;20178;-72
2023/01/02 13:38:29;;;;;;;11.17;6.87;;;;;;;;;;4938289;29;20542;-72
2023/01/02 13:40:55;;;;;;;13.33;7.80;;;;;;;;;;4940721;29;20661;-72
2023/01/02 13:43:24;;;;;;;8.93;6.50;;;;;;;;;;4941958;29;20261;-73
2023/01/02 13:45:52;;;;;;;13.00;8.17;;;;;;;;;;4939720;29;20190;-73
2023/01/02 13:48:20;;;;;;;12.60;6.87;;;;;;;;;;4949099;29;20209;-73
2023/01/02 13:50:45;;;;;;;16.10;8.03;;;;;;;;;;4945799;28;20193;-73
2023/01/02 13:53:10;;;;;;;13.87;8.37;;;;;;;;;;4941484;29;20209;-73
2023/01/02 13:55:56;;;;;;;10.87;7.60;;;;;;;;;;4934866;29;20258;-73
2023/01/02 13:58:41;;;;;;;12.60;7.70;;;;;;;;;;4929142;29;20193;-71
2023/01/02 14:01:28;;;;;;;13.00;8.03;;;;;;;;;;4945001;29;20599;-73
2023/01/02 14:04:11;;;;;;;10.27;6.70;;;;;;;;;;4935851;29;20196;-74
2023/01/02 14:06:40;;;;;;;16.70;7.87;;;;;;;;;;4946164;29;20188;-73
2023/01/02 14:09:05;;;;;;;10.50;7.13;;;;;;;;;;4937130;29;20181;-75
2023/01/02 14:11:31;;;;;;;8.87;6.57;;;;;;;;;;4933967;29;20580;-71
2023/01/02 14:13:56;;;;;;;14.03;6.57;;;;;;;;;;4925819;28;20246;-72
2023/01/02 14:16:21;;;;;;;11.07;6.53;;;;;;;;;;4945240;29;20188;-72
2023/01/02 14:19:05;;;;;;;11.70;6.07;;;;;;;;;;4947769;28;20177;-72
2023/01/02 14:21:35;;;;;;;12.40;6.70;;;;;;;;;;4949730;28;20582;-72
2023/01/02 14:24:01;;;;;;;8.17;5.37;;;;;;;;;;4942415;29;20687;-72
2023/01/02 14:26:29;;;;;;;13.37;7.10;;;;;;;;;;4941396;28;20197;-72
2023/01/02 14:28:55;;;;;;;6.87;5.10;;;;;;;;;;4934365;29;20185;-72
2023/01/02 14:31:30;;;;;;;9.27;5.27;;;;;;;;;;4927738;29;20268;-72
2023/01/02 14:33:55;;;;;;;7.57;4.87;;;;;;;;;;4942085;29;20201;-72
2023/01/02 14:36:28;;;;;;;7.00;4.57;;;;;;;;;;4933352;29;20190;-72
2023/01/02 14:38:54;;;;;;;7.07;4.57;;;;;;;;;;4939672;28;20224;-72
2023/01/02 14:44:23;;;;;;;5.43;4.00;;;;;;;;;;4937551;29;20738;-72
2023/01/02 14:46:49;;;;;;;9.13;4.33;;;;;;;;;;4932199;28;20181;-72
2023/01/02 14:49:17;;;;;;;6.20;3.80;;;;;;;;;;4937813;28;20176;-71
2023/01/02 14:51:46;;;;;;;8.97;4.00;;;;;;;;;;4927977;29;20205;-72
2023/01/02 14:54:14;;;;;;;7.27;4.00;;;;;;;;;;4930378;29;20297;-72
2023/01/02 14:56:41;;;;;;;6.80;3.63;;;;;;;;;;4946173;29;20674;-71